Terminal Aerodrome Forecast
Issued by NWS

Home | Current Version | Previous Version | Text Only | Print | Product List | Glossary On
Versions: 1 2 3 4 5 6 7 8 9 10 11 12 13 14 15 16 17 18 19 20 21 22 23 24 25 26 27 28 29 30 31
000
FTUS44 KLIX 221100
TAFHUM
TAF
KHUM 221138Z 2212/2312 05003KT 2SM BR OVC003
      TEMPO 2212/2215 1/2SM FG VV002
     FM221500 18011KT P6SM BKN008
     FM221700 22015KT P6SM BKN020
     FM230200 23010KT P6SM BKN008
     FM230600 25009KT P6SM VCTS BKN008CB=

USA.gov is the U.S. government's official web portal to all federal, state and local government web resources and services.